sensor_id;sensor_type;location;lat;lon;timestamp;temperature;humidity
39655;DHT22;25336;59.944;11.010;2023-02-28T00:00:32;0.20;62.70
39655;DHT22;25336;59.944;11.010;2023-02-28T00:02:58;0.20;62.70
39655;DHT22;25336;59.944;11.010;2023-02-28T00:05:26;0.20;62.70
39655;DHT22;25336;59.944;11.010;2023-02-28T00:07:52;0.20;62.80
39655;DHT22;25336;59.944;11.010;2023-02-28T00:10:24;0.20;63.00
39655;DHT22;25336;59.944;11.010;2023-02-28T00:12:50;0.20;63.40
39655;DHT22;25336;59.944;11.010;2023-02-28T00:15:16;0.20;63.40
39655;DHT22;25336;59.944;11.010;2023-02-28T00:17:42;0.20;63.40
39655;DHT22;25336;59.944;11.010;2023-02-28T00:20:09;0.20;63.30
39655;DHT22;25336;59.944;11.010;2023-02-28T00:22:36;0.20;63.00
39655;DHT22;25336;59.944;11.010;2023-02-28T00:25:03;0.20;62.90
39655;DHT22;25336;59.944;11.010;2023-02-28T00:27:29;0.10;62.70
39655;DHT22;25336;59.944;11.010;2023-02-28T00:29:55;0.10;62.50
39655;DHT22;25336;59.944;11.010;2023-02-28T00:32:21;0.10;62.60
39655;DHT22;25336;59.944;11.010;2023-02-28T00:34:46;0.10;62.70
39655;DHT22;25336;59.944;11.010;2023-02-28T00:37:12;0.10;62.80
39655;DHT22;25336;59.944;11.010;2023-02-28T00:39:38;0.00;62.90
39655;DHT22;25336;59.944;11.010;2023-02-28T00:42:05;0.00;63.10
39655;DHT22;25336;59.944;11.010;2023-02-28T00:44:31;0.00;63.10
39655;DHT22;25336;59.944;11.010;2023-02-28T00:46:57;0.00;63.10
39655;DHT22;25336;59.944;11.010;2023-02-28T00:49:23;0.00;63.30
39655;DHT22;25336;59.944;11.010;2023-02-28T00:51:49;-0.90;62.30
39655;DHT22;25336;59.944;11.010;2023-02-28T00:54:15;0.00;62.50
39655;DHT22;25336;59.944;11.010;2023-02-28T00:56:41;-0.10;62.30
39655;DHT22;25336;59.944;11.010;2023-02-28T00:59:06;-0.20;62.20
39655;DHT22;25336;59.944;11.010;2023-02-28T01:01:32;-0.20;62.30
39655;DHT22;25336;59.944;11.010;2023-02-28T01:03:58;-0.20;62.40
39655;DHT22;25336;59.944;11.010;2023-02-28T01:06:23;-0.30;62.40
39655;DHT22;25336;59.944;11.010;2023-02-28T01:08:49;-0.30;62.50
39655;DHT22;25336;59.944;11.010;2023-02-28T01:11:16;-0.30;62.80
39655;DHT22;25336;59.944;11.010;2023-02-28T01:13:43;-0.30;63.00
39655;DHT22;25336;59.944;11.010;2023-02-28T01:16:09;-0.40;63.20
39655;DHT22;25336;59.944;11.010;2023-02-28T01:18:36;-0.40;63.30
39655;DHT22;25336;59.944;11.010;2023-02-28T01:21:13;-0.30;63.40
39655;DHT22;25336;59.944;11.010;2023-02-28T01:23:40;-0.40;63.70
39655;DHT22;25336;59.944;11.010;2023-02-28T01:26:07;-0.30;63.70
39655;DHT22;25336;59.944;11.010;2023-02-28T01:28:34;-0.30;63.80
39655;DHT22;25336;59.944;11.010;2023-02-28T01:30:59;-0.40;63.80
39655;DHT22;25336;59.944;11.010;2023-02-28T01:33:25;-0.40;63.60
39655;DHT22;25336;59.944;11.010;2023-02-28T01:36:01;-0.50;63.60
39655;DHT22;25336;59.944;11.010;2023-02-28T01:38:27;-0.30;63.80
39655;DHT22;25336;59.944;11.010;2023-02-28T01:40:52;-0.30;63.50
39655;DHT22;25336;59.944;11.010;2023-02-28T01:43:29;-0.40;63.40
39655;DHT22;25336;59.944;11.010;2023-02-28T01:45:57;-0.40;63.50
39655;DHT22;25336;59.944;11.010;2023-02-28T01:48:27;-0.40;63.30
39655;DHT22;25336;59.944;11.010;2023-02-28T01:50:55;-0.40;63.20
39655;DHT22;25336;59.944;11.010;2023-02-28T01:53:29;-0.40;63.20
39655;DHT22;25336;59.944;11.010;2023-02-28T01:55:57;-0.40;63.10
39655;DHT22;25336;59.944;11.010;2023-02-28T01:58:23;-0.40;63.00
39655;DHT22;25336;59.944;11.010;2023-02-28T02:00:49;-0.40;63.00
39655;DHT22;25336;59.944;11.010;2023-02-28T02:03:17;-0.40;63.40
39655;DHT22;25336;59.944;11.010;2023-02-28T02:05:47;-0.40;63.90
39655;DHT22;25336;59.944;11.010;2023-02-28T02:08:19;-0.40;64.40
39655;DHT22;25336;59.944;11.010;2023-02-28T02:10:48;-0.40;64.60
39655;DHT22;25336;59.944;11.010;2023-02-28T02:13:49;-0.40;64.80
39655;DHT22;25336;59.944;11.010;2023-02-28T02:16:34;-0.30;65.30
39655;DHT22;25336;59.944;11.010;2023-02-28T02:22:27;-0.20;64.90
39655;DHT22;25336;59.944;11.010;2023-02-28T02:25:10;-0.20;64.60
39655;DHT22;25336;59.944;11.010;2023-02-28T02:30:48;0.00;64.30
39655;DHT22;25336;59.944;11.010;2023-02-28T02:36:37;-0.20;64.20
39655;DHT22;25336;59.944;11.010;2023-02-28T02:41:51;-0.20;63.70
39655;DHT22;25336;59.944;11.010;2023-02-28T02:44:48;-0.20;63.90
39655;DHT22;25336;59.944;11.010;2023-02-28T02:47:18;-0.20;63.50
39655;DHT22;25336;59.944;11.010;2023-02-28T02:49:49;-0.20;63.30
39655;DHT22;25336;59.944;11.010;2023-02-28T02:52:20;-0.30;63.30
39655;DHT22;25336;59.944;11.010;2023-02-28T02:54:48;-0.30;63.40
39655;DHT22;25336;59.944;11.010;2023-02-28T02:57:23;-0.30;63.50
39655;DHT22;25336;59.944;11.010;2023-02-28T02:59:52;-0.30;63.70
39655;DHT22;25336;59.944;11.010;2023-02-28T03:02:19;-0.40;63.50
39655;DHT22;25336;59.944;11.010;2023-02-28T03:04:52;-0.40;63.30
39655;DHT22;25336;59.944;11.010;2023-02-28T03:07:19;-0.40;63.40
39655;DHT22;25336;59.944;11.010;2023-02-28T03:09:52;-0.40;63.30
39655;DHT22;25336;59.944;11.010;2023-02-28T03:12:20;-0.50;63.50
39655;DHT22;25336;59.944;11.010;2023-02-28T03:17:48;-0.50;63.60
39655;DHT22;25336;59.944;11.010;2023-02-28T03:20:47;-0.60;63.40
39655;DHT22;25336;59.944;11.010;2023-02-28T03:23:20;-0.60;63.40
39655;DHT22;25336;59.944;11.010;2023-02-28T03:26:06;-0.60;63.40
39655;DHT22;25336;59.944;11.010;2023-02-28T03:28:49;-0.60;63.90
39655;DHT22;25336;59.944;11.010;2023-02-28T03:31:38;-0.60;63.80
39655;DHT22;25336;59.944;11.010;2023-02-28T03:34:24;-0.80;63.80
39655;DHT22;25336;59.944;11.010;2023-02-28T03:36:55;-0.60;64.00
39655;DHT22;25336;59.944;11.010;2023-02-28T03:39:44;-0.90;63.70
39655;DHT22;25336;59.944;11.010;2023-02-28T03:42:22;-0.70;63.90
39655;DHT22;25336;59.944;11.010;2023-02-28T03:44:53;-0.70;63.50
39655;DHT22;25336;59.944;11.010;2023-02-28T03:47:29;-0.70;63.30
39655;DHT22;25336;59.944;11.010;2023-02-28T03:50:08;-0.70;63.20
39655;DHT22;25336;59.944;11.010;2023-02-28T03:52:40;-0.80;63.20
39655;DHT22;25336;59.944;11.010;2023-02-28T03:55:11;-0.80;63.20
39655;DHT22;25336;59.944;11.010;2023-02-28T03:57:58;-0.80;63.30
39655;DHT22;25336;59.944;11.010;2023-02-28T04:00:45;-0.90;63.70
39655;DHT22;25336;59.944;11.010;2023-02-28T04:03:12;-0.90;63.70
39655;DHT22;25336;59.944;11.010;2023-02-28T04:05:53;-0.90;63.60
39655;DHT22;25336;59.944;11.010;2023-02-28T04:08:19;-1.00;63.80
39655;DHT22;25336;59.944;11.010;2023-02-28T04:10:52;-1.00;63.60
39655;DHT22;25336;59.944;11.010;2023-02-28T04:13:19;-1.00;63.70
39655;DHT22;25336;59.944;11.010;2023-02-28T04:15:44;-1.00;63.60
39655;DHT22;25336;59.944;11.010;2023-02-28T04:18:10;-1.00;63.40
39655;DHT22;25336;59.944;11.010;2023-02-28T04:20:36;-1.10;63.20
39655;DHT22;25336;59.944;11.010;2023-02-28T04:23:01;-1.10;63.20
39655;DHT22;25336;59.944;11.010;2023-02-28T04:25:27;-1.20;63.20
39655;DHT22;25336;59.944;11.010;2023-02-28T04:27:52;-1.20;63.30
39655;DHT22;25336;59.944;11.010;2023-02-28T04:30:18;-1.20;63.40
39655;DHT22;25336;59.944;11.010;2023-02-28T04:32:44;-1.20;63.60
39655;DHT22;25336;59.944;11.010;2023-02-28T04:35:09;-1.30;63.90
39655;DHT22;25336;59.944;11.010;2023-02-28T04:37:35;-1.20;64.20
39655;DHT22;25336;59.944;11.010;2023-02-28T04:40:02;-1.30;64.40
39655;DHT22;25336;59.944;11.010;2023-02-28T04:42:28;-1.20;64.60
39655;DHT22;25336;59.944;11.010;2023-02-28T04:45:04;-1.20;64.60
39655;DHT22;25336;59.944;11.010;2023-02-28T04:47:29;-1.20;64.60
39655;DHT22;25336;59.944;11.010;2023-02-28T04:49:55;-1.20;64.10
39655;DHT22;25336;59.944;11.010;2023-02-28T04:52:21;-1.30;63.90
39655;DHT22;25336;59.944;11.010;2023-02-28T04:54:46;-1.30;63.60
39655;DHT22;25336;59.944;11.010;2023-02-28T04:57:12;-1.30;63.70
39655;DHT22;25336;59.944;11.010;2023-02-28T04:59:38;-1.30;63.70
39655;DHT22;25336;59.944;11.010;2023-02-28T05:02:04;-1.40;63.40
39655;DHT22;25336;59.944;11.010;2023-02-28T05:04:35;-1.40;63.50
39655;DHT22;25336;59.944;11.010;2023-02-28T05:07:01;-1.40;63.50
39655;DHT22;25336;59.944;11.010;2023-02-28T05:09:29;-1.50;63.50
39655;DHT22;25336;59.944;11.010;2023-02-28T05:11:55;-1.50;63.70
39655;DHT22;25336;59.944;11.010;2023-02-28T05:14:21;-1.50;63.70
39655;DHT22;25336;59.944;11.010;2023-02-28T05:16:46;-1.60;63.70
39655;DHT22;25336;59.944;11.010;2023-02-28T05:19:12;-1.60;63.80
39655;DHT22;25336;59.944;11.010;2023-02-28T05:21:40;-1.60;64.00
39655;DHT22;25336;59.944;11.010;2023-02-28T05:24:10;-1.60;64.40
39655;DHT22;25336;59.944;11.010;2023-02-28T05:26:41;-1.70;64.60
39655;DHT22;25336;59.944;11.010;2023-02-28T05:29:07;-1.60;65.00
39655;DHT22;25336;59.944;11.010;2023-02-28T05:31:33;-1.60;65.30
39655;DHT22;25336;59.944;11.010;2023-02-28T05:33:59;-1.60;65.50
39655;DHT22;25336;59.944;11.010;2023-02-28T05:36:25;-1.60;65.40
39655;DHT22;25336;59.944;11.010;2023-02-28T05:38:51;-1.60;65.40
39655;DHT22;25336;59.944;11.010;2023-02-28T05:41:17;-1.50;65.40
39655;DHT22;25336;59.944;11.010;2023-02-28T05:43:44;-1.50;65.20
39655;DHT22;25336;59.944;11.010;2023-02-28T05:46:11;-1.50;65.10
39655;DHT22;25336;59.944;11.010;2023-02-28T05:48:39;-1.50;64.60
39655;DHT22;25336;59.944;11.010;2023-02-28T05:51:05;-1.60;64.60
39655;DHT22;25336;59.944;11.010;2023-02-28T05:53:31;-1.60;64.50
39655;DHT22;25336;59.944;11.010;2023-02-28T05:55:57;-1.60;64.60
39655;DHT22;25336;59.944;11.010;2023-02-28T05:58:23;-0.90;66.00
39655;DHT22;25336;59.944;11.010;2023-02-28T06:00:51;-1.70;64.90
39655;DHT22;25336;59.944;11.010;2023-02-28T06:03:16;-1.60;65.20
39655;DHT22;25336;59.944;11.010;2023-02-28T06:05:42;-1.60;65.40
39655;DHT22;25336;59.944;11.010;2023-02-28T06:08:07;-1.70;65.40
39655;DHT22;25336;59.944;11.010;2023-02-28T06:10:34;-1.60;65.70
39655;DHT22;25336;59.944;11.010;2023-02-28T06:13:01;-1.60;65.70
39655;DHT22;25336;59.944;11.010;2023-02-28T06:15:28;-0.40;66.10
39655;DHT22;25336;59.944;11.010;2023-02-28T06:17:54;-1.60;65.00
39655;DHT22;25336;59.944;11.010;2023-02-28T06:20:21;-1.70;64.80
39655;DHT22;25336;59.944;11.010;2023-02-28T06:22:47;-1.70;64.80
39655;DHT22;25336;59.944;11.010;2023-02-28T06:25:13;-1.70;64.80
39655;DHT22;25336;59.944;11.010;2023-02-28T06:27:38;-1.70;64.80
39655;DHT22;25336;59.944;11.010;2023-02-28T06:30:04;-1.70;64.80
39655;DHT22;25336;59.944;11.010;2023-02-28T06:32:30;-1.70;64.70
39655;DHT22;25336;59.944;11.010;2023-02-28T06:34:55;-1.80;64.50
39655;DHT22;25336;59.944;11.010;2023-02-28T06:37:23;-1.80;64.50
39655;DHT22;25336;59.944;11.010;2023-02-28T06:39:51;-1.80;64.50
39655;DHT22;25336;59.944;11.010;2023-02-28T06:42:17;-1.20;64.90
39655;DHT22;25336;59.944;11.010;2023-02-28T06:44:45;-1.80;64.70
39655;DHT22;25336;59.944;11.010;2023-02-28T06:47:10;-1.90;64.90
39655;DHT22;25336;59.944;11.010;2023-02-28T06:49:36;-1.90;65.10
39655;DHT22;25336;59.944;11.010;2023-02-28T06:52:02;-1.80;65.60
39655;DHT22;25336;59.944;11.010;2023-02-28T06:54:28;-1.80;66.00
39655;DHT22;25336;59.944;11.010;2023-02-28T06:56:54;-1.80;66.30
39655;DHT22;25336;59.944;11.010;2023-02-28T06:59:20;-1.70;66.80
39655;DHT22;25336;59.944;11.010;2023-02-28T07:01:45;-1.70;66.90
39655;DHT22;25336;59.944;11.010;2023-02-28T07:04:11;-1.60;66.80
39655;DHT22;25336;59.944;11.010;2023-02-28T07:06:38;-1.60;66.80
39655;DHT22;25336;59.944;11.010;2023-02-28T07:09:04;-1.50;66.90
39655;DHT22;25336;59.944;11.010;2023-02-28T07:11:30;-0.50;67.50
39655;DHT22;25336;59.944;11.010;2023-02-28T07:13:56;-1.40;66.90
39655;DHT22;25336;59.944;11.010;2023-02-28T07:16:23;-1.30;66.90
39655;DHT22;25336;59.944;11.010;2023-02-28T07:18:52;-1.30;66.90
39655;DHT22;25336;59.944;11.010;2023-02-28T07:21:18;-1.20;67.10
39655;DHT22;25336;59.944;11.010;2023-02-28T07:23:43;-1.20;67.00
39655;DHT22;25336;59.944;11.010;2023-02-28T07:26:13;-1.10;67.00
39655;DHT22;25336;59.944;11.010;2023-02-28T07:28:43;-1.10;66.90
39655;DHT22;25336;59.944;11.010;2023-02-28T07:31:10;-1.00;66.80
39655;DHT22;25336;59.944;11.010;2023-02-28T07:33:36;-0.90;66.60
39655;DHT22;25336;59.944;11.010;2023-02-28T07:36:07;-0.90;67.20
39655;DHT22;25336;59.944;11.010;2023-02-28T07:41:12;-0.80;66.20
39655;DHT22;25336;59.944;11.010;2023-02-28T07:43:38;0.40;66.80
39655;DHT22;25336;59.944;11.010;2023-02-28T07:46:07;-0.70;66.00
39655;DHT22;25336;59.944;11.010;2023-02-28T07:48:33;-0.70;66.10
39655;DHT22;25336;59.944;11.010;2023-02-28T07:50:59;-0.60;66.10
39655;DHT22;25336;59.944;11.010;2023-02-28T07:53:26;-0.60;66.00
39655;DHT22;25336;59.944;11.010;2023-02-28T07:55:55;-0.50;66.10
39655;DHT22;25336;59.944;11.010;2023-02-28T07:58:22;-0.40;66.00
39655;DHT22;25336;59.944;11.010;2023-02-28T08:00:47;-0.40;65.80
39655;DHT22;25336;59.944;11.010;2023-02-28T08:03:13;-0.30;65.90
39655;DHT22;25336;59.944;11.010;2023-02-28T08:05:39;-0.30;65.70
39655;DHT22;25336;59.944;11.010;2023-02-28T08:08:06;-0.20;65.70
39655;DHT22;25336;59.944;11.010;2023-02-28T08:10:32;0.90;66.20
39655;DHT22;25336;59.944;11.010;2023-02-28T08:12:57;1.00;66.10
39655;DHT22;25336;59.944;11.010;2023-02-28T08:15:23;0.00;65.30
39655;DHT22;25336;59.944;11.010;2023-02-28T08:17:48;0.00;65.20
39655;DHT22;25336;59.944;11.010;2023-02-28T08:20:14;0.10;65.20
39655;DHT22;25336;59.944;11.010;2023-02-28T08:22:40;0.10;65.10
39655;DHT22;25336;59.944;11.010;2023-02-28T08:25:07;0.20;65.00
39655;DHT22;25336;59.944;11.010;2023-02-28T08:27:33;0.30;65.00
39655;DHT22;25336;59.944;11.010;2023-02-28T08:29:58;0.30;64.90
39655;DHT22;25336;59.944;11.010;2023-02-28T08:32:24;0.40;64.80
39655;DHT22;25336;59.944;11.010;2023-02-28T08:34:50;0.40;64.60
39655;DHT22;25336;59.944;11.010;2023-02-28T08:37:16;0.50;64.60
39655;DHT22;25336;59.944;11.010;2023-02-28T08:39:42;0.60;64.50
39655;DHT22;25336;59.944;11.010;2023-02-28T08:42:07;0.70;64.40
39655;DHT22;25336;59.944;11.010;2023-02-28T08:44:33;0.70;64.40
39655;DHT22;25336;59.944;11.010;2023-02-28T08:46:58;0.80;64.40
39655;DHT22;25336;59.944;11.010;2023-02-28T08:49:24;0.90;64.60
39655;DHT22;25336;59.944;11.010;2023-02-28T08:51:49;1.00;64.70
39655;DHT22;25336;59.944;11.010;2023-02-28T08:54:15;1.10;64.80
39655;DHT22;25336;59.944;11.010;2023-02-28T08:56:45;1.20;64.80
39655;DHT22;25336;59.944;11.010;2023-02-28T08:59:12;1.30;64.80
39655;DHT22;25336;59.944;11.010;2023-02-28T09:01:38;1.50;64.70
39655;DHT22;25336;59.944;11.010;2023-02-28T09:04:04;1.60;64.60
39655;DHT22;25336;59.944;11.010;2023-02-28T09:06:29;1.70;64.50
39655;DHT22;25336;59.944;11.010;2023-02-28T09:08:58;1.80;64.30
39655;DHT22;25336;59.944;11.010;2023-02-28T09:11:25;1.90;64.10
39655;DHT22;25336;59.944;11.010;2023-02-28T09:13:50;2.10;64.00
39655;DHT22;25336;59.944;11.010;2023-02-28T09:16:17;2.20;63.90
39655;DHT22;25336;59.944;11.010;2023-02-28T09:18:43;2.30;63.60
39655;DHT22;25336;59.944;11.010;2023-02-28T09:21:12;2.40;63.50
39655;DHT22;25336;59.944;11.010;2023-02-28T09:23:43;2.60;63.40
39655;DHT22;25336;59.944;11.010;2023-02-28T09:26:21;1.90;62.70
39655;DHT22;25336;59.944;11.010;2023-02-28T09:28:48;2.80;62.70
39655;DHT22;25336;59.944;11.010;2023-02-28T09:31:15;2.90;62.50
39655;DHT22;25336;59.944;11.010;2023-02-28T09:33:42;3.00;61.80
39655;DHT22;25336;59.944;11.010;2023-02-28T09:36:08;3.10;61.50
39655;DHT22;25336;59.944;11.010;2023-02-28T09:38:33;3.10;61.20
39655;DHT22;25336;59.944;11.010;2023-02-28T09:41:03;3.20;61.00
39655;DHT22;25336;59.944;11.010;2023-02-28T09:43:35;3.30;60.80
39655;DHT22;25336;59.944;11.010;2023-02-28T09:46:18;3.30;60.50
39655;DHT22;25336;59.944;11.010;2023-02-28T09:48:49;3.40;60.20
39655;DHT22;25336;59.944;11.010;2023-02-28T09:52:19;3.50;60.30
39655;DHT22;25336;59.944;11.010;2023-02-28T09:54:23;3.60;60.20
39655;DHT22;25336;59.944;11.010;2023-02-28T10:00:05;3.80;60.00
39655;DHT22;25336;59.944;11.010;2023-02-28T10:05:10;3.90;60.10
39655;DHT22;25336;59.944;11.010;2023-02-28T10:10:49;4.20;59.50
39655;DHT22;25336;59.944;11.010;2023-02-28T10:16:39;4.50;59.30
39655;DHT22;25336;59.944;11.010;2023-02-28T10:24:51;4.80;58.90
39655;DHT22;25336;59.944;11.010;2023-02-28T10:27:25;5.00;58.80
39655;DHT22;25336;59.944;11.010;2023-02-28T10:29:53;5.10;58.60
39655;DHT22;25336;59.944;11.010;2023-02-28T10:32:24;6.00;58.80
39655;DHT22;25336;59.944;11.010;2023-02-28T10:37:57;5.40;58.10
39655;DHT22;25336;59.944;11.010;2023-02-28T10:43:03;5.60;58.10
39655;DHT22;25336;59.944;11.010;2023-02-28T10:45:33;5.70;57.70
39655;DHT22;25336;59.944;11.010;2023-02-28T10:48:10;5.80;57.90
39655;DHT22;25336;59.944;11.010;2023-02-28T10:50:52;5.90;57.60
39655;DHT22;25336;59.944;11.010;2023-02-28T10:58:59;6.20;57.10
39655;DHT22;25336;59.944;11.010;2023-02-28T11:03:57;6.40;57.20
39655;DHT22;25336;59.944;11.010;2023-02-28T11:06:23;6.50;57.00
39655;DHT22;25336;59.944;11.010;2023-02-28T11:09:00;6.70;57.00
39655;DHT22;25336;59.944;11.010;2023-02-28T11:11:28;6.70;56.80
39655;DHT22;25336;59.944;11.010;2023-02-28T11:14:02;7.30;56.80
39655;DHT22;25336;59.944;11.010;2023-02-28T11:16:34;6.90;56.30
39655;DHT22;25336;59.944;11.010;2023-02-28T11:19:01;7.00;55.90
39655;DHT22;25336;59.944;11.010;2023-02-28T11:21:29;7.10;56.00
39655;DHT22;25336;59.944;11.010;2023-02-28T11:24:12;7.20;55.80
39655;DHT22;25336;59.944;11.010;2023-02-28T11:26:43;7.30;55.20
39655;DHT22;25336;59.944;11.010;2023-02-28T11:29:24;7.40;55.30
39655;DHT22;25336;59.944;11.010;2023-02-28T11:34:35;7.60;54.90
39655;DHT22;25336;59.944;11.010;2023-02-28T11:37:03;7.70;55.20
39655;DHT22;25336;59.944;11.010;2023-02-28T11:39:31;7.90;55.00
39655;DHT22;25336;59.944;11.010;2023-02-28T11:42:09;8.00;55.00
39655;DHT22;25336;59.944;11.010;2023-02-28T11:50:38;8.30;53.40
39655;DHT22;25336;59.944;11.010;2023-02-28T11:53:20;8.50;53.80
39655;DHT22;25336;59.944;11.010;2023-02-28T11:56:18;8.60;53.50
39655;DHT22;25336;59.944;11.010;2023-02-28T11:58:54;8.80;53.50
39655;DHT22;25336;59.944;11.010;2023-02-28T12:07:21;9.20;52.50
39655;DHT22;25336;59.944;11.010;2023-02-28T12:10:17;9.30;52.10
39655;DHT22;25336;59.944;11.010;2023-02-28T12:18:39;9.60;51.70
39655;DHT22;25336;59.944;11.010;2023-02-28T12:24:14;9.70;50.80
39655;DHT22;25336;59.944;11.010;2023-02-28T12:26:45;9.70;51.40
39655;DHT22;25336;59.944;11.010;2023-02-28T12:32:05;9.80;51.00
39655;DHT22;25336;59.944;11.010;2023-02-28T12:34:35;9.80;51.00
39655;DHT22;25336;59.944;11.010;2023-02-28T12:37:06;9.80;51.00
39655;DHT22;25336;59.944;11.010;2023-02-28T12:39:38;9.90;50.80
39655;DHT22;25336;59.944;11.010;2023-02-28T12:42:30;9.90;50.60
39655;DHT22;25336;59.944;11.010;2023-02-28T12:45:10;9.90;50.30
39655;DHT22;25336;59.944;11.010;2023-02-28T12:47:40;10.00;50.10
39655;DHT22;25336;59.944;11.010;2023-02-28T12:50:09;10.00;50.50
39655;DHT22;25336;59.944;11.010;2023-02-28T13:01:06;10.00;49.30
39655;DHT22;25336;59.944;11.010;2023-02-28T13:04:20;10.30;50.20
39655;DHT22;25336;59.944;11.010;2023-02-28T13:09:52;10.10;49.20
39655;DHT22;25336;59.944;11.010;2023-02-28T13:12:18;10.20;49.30
39655;DHT22;25336;59.944;11.010;2023-02-28T13:14:45;10.20;49.70
39655;DHT22;25336;59.944;11.010;2023-02-28T13:17:14;10.20;49.60
39655;DHT22;25336;59.944;11.010;2023-02-28T13:20:14;10.20;49.20
39655;DHT22;25336;59.944;11.010;2023-02-28T13:22:48;10.30;48.90
39655;DHT22;25336;59.944;11.010;2023-02-28T13:27:52;10.40;48.80
39655;DHT22;25336;59.944;11.010;2023-02-28T13:33:34;10.50;48.00
39655;DHT22;25336;59.944;11.010;2023-02-28T13:46:28;10.60;48.30
39655;DHT22;25336;59.944;11.010;2023-02-28T13:48:53;10.60;48.50
39655;DHT22;25336;59.944;11.010;2023-02-28T13:51:42;10.60;48.30
39655;DHT22;25336;59.944;11.010;2023-02-28T14:03:13;10.80;47.30
39655;DHT22;25336;59.944;11.010;2023-02-28T14:05:40;10.80;47.40
39655;DHT22;25336;59.944;11.010;2023-02-28T14:10:45;10.90;47.70
39655;DHT22;25336;59.944;11.010;2023-02-28T14:13:38;10.90;47.60
39655;DHT22;25336;59.944;11.010;2023-02-28T14:16:10;10.80;47.20
39655;DHT22;25336;59.944;11.010;2023-02-28T14:18:42;10.90;47.30
39655;DHT22;25336;59.944;11.010;2023-02-28T14:32:28;11.00;46.60
39655;DHT22;25336;59.944;11.010;2023-02-28T14:37:52;11.00;46.30
39655;DHT22;25336;59.944;11.010;2023-02-28T14:40:32;11.00;47.00
39655;DHT22;25336;59.944;11.010;2023-02-28T14:43:01;11.00;46.90
39655;DHT22;25336;59.944;11.010;2023-02-28T14:45:31;11.00;47.10
39655;DHT22;25336;59.944;11.010;2023-02-28T14:47:58;11.10;46.90
39655;DHT22;25336;59.944;11.010;2023-02-28T14:50:30;11.00;47.00
39655;DHT22;25336;59.944;11.010;2023-02-28T14:52:57;11.00;46.60
39655;DHT22;25336;59.944;11.010;2023-02-28T14:55:26;11.00;46.80
39655;DHT22;25336;59.944;11.010;2023-02-28T15:00:29;11.00;46.70
39655;DHT22;25336;59.944;11.010;2023-02-28T15:02:56;11.00;46.80
39655;DHT22;25336;59.944;11.010;2023-02-28T15:05:26;11.00;46.80
39655;DHT22;25336;59.944;11.010;2023-02-28T15:08:04;11.00;46.60
39655;DHT22;25336;59.944;11.010;2023-02-28T15:10:30;11.00;46.40
39655;DHT22;25336;59.944;11.010;2023-02-28T15:12:57;11.00;46.80
39655;DHT22;25336;59.944;11.010;2023-02-28T15:18:16;11.00;46.20
39655;DHT22;25336;59.944;11.010;2023-02-28T15:20:46;11.00;46.50
39655;DHT22;25336;59.944;11.010;2023-02-28T15:23:12;10.90;46.70
39655;DHT22;25336;59.944;11.010;2023-02-28T15:25:39;10.90;46.70
39655;DHT22;25336;59.944;11.010;2023-02-28T15:28:09;10.90;46.70
39655;DHT22;25336;59.944;11.010;2023-02-28T15:30:37;11.70;47.10
39655;DHT22;25336;59.944;11.010;2023-02-28T15:33:24;10.90;46.70
39655;DHT22;25336;59.944;11.010;2023-02-28T15:35:50;10.80;46.10
39655;DHT22;25336;59.944;11.010;2023-02-28T15:38:27;10.80;46.50
39655;DHT22;25336;59.944;11.010;2023-02-28T15:40:55;10.80;46.10
39655;DHT22;25336;59.944;11.010;2023-02-28T15:43:30;10.70;46.50
39655;DHT22;25336;59.944;11.010;2023-02-28T15:48:37;10.70;46.50
39655;DHT22;25336;59.944;11.010;2023-02-28T15:51:07;10.60;45.80
39655;DHT22;25336;59.944;11.010;2023-02-28T15:53:54;10.60;46.50
39655;DHT22;25336;59.944;11.010;2023-02-28T15:56:29;10.60;46.10
39655;DHT22;25336;59.944;11.010;2023-02-28T15:59:01;10.60;46.60
39655;DHT22;25336;59.944;11.010;2023-02-28T16:01:28;10.50;46.70
39655;DHT22;25336;59.944;11.010;2023-02-28T16:04:02;10.50;46.80
39655;DHT22;25336;59.944;11.010;2023-02-28T16:06:36;10.40;46.90
39655;DHT22;25336;59.944;11.010;2023-02-28T16:09:04;10.30;46.60
39655;DHT22;25336;59.944;11.010;2023-02-28T16:11:30;10.30;46.70
39655;DHT22;25336;59.944;11.010;2023-02-28T16:13:57;10.20;46.60
39655;DHT22;25336;59.944;11.010;2023-02-28T16:16:24;10.10;46.70
39655;DHT22;25336;59.944;11.010;2023-02-28T16:18:51;10.10;46.70
39655;DHT22;25336;59.944;11.010;2023-02-28T16:21:17;10.00;46.60
39655;DHT22;25336;59.944;11.010;2023-02-28T16:23:43;10.00;46.70
39655;DHT22;25336;59.944;11.010;2023-02-28T16:26:23;9.90;46.70
39655;DHT22;25336;59.944;11.010;2023-02-28T16:28:51;9.80;46.60
39655;DHT22;25336;59.944;11.010;2023-02-28T16:31:17;9.70;46.70
39655;DHT22;25336;59.944;11.010;2023-02-28T16:33:44;9.70;46.70
39655;DHT22;25336;59.944;11.010;2023-02-28T16:36:22;9.60;46.90
39655;DHT22;25336;59.944;11.010;2023-02-28T16:38:50;9.50;46.90
39655;DHT22;25336;59.944;11.010;2023-02-28T16:41:19;9.40;47.00
39655;DHT22;25336;59.944;11.010;2023-02-28T16:43:47;9.30;47.00
39655;DHT22;25336;59.944;11.010;2023-02-28T16:46:15;9.20;47.20
39655;DHT22;25336;59.944;11.010;2023-02-28T16:48:42;9.10;47.40
39655;DHT22;25336;59.944;11.010;2023-02-28T16:51:12;8.90;47.40
39655;DHT22;25336;59.944;11.010;2023-02-28T16:53:38;8.80;47.50
39655;DHT22;25336;59.944;11.010;2023-02-28T16:56:04;8.60;47.70
39655;DHT22;25336;59.944;11.010;2023-02-28T16:58:32;8.60;47.90
39655;DHT22;25336;59.944;11.010;2023-02-28T17:01:01;8.50;48.10
39655;DHT22;25336;59.944;11.010;2023-02-28T17:03:28;8.30;48.30
39655;DHT22;25336;59.944;11.010;2023-02-28T17:05:54;8.20;48.50
39655;DHT22;25336;59.944;11.010;2023-02-28T17:08:20;8.10;48.70
39655;DHT22;25336;59.944;11.010;2023-02-28T17:10:46;8.00;48.80
39655;DHT22;25336;59.944;11.010;2023-02-28T17:13:11;7.80;49.00
39655;DHT22;25336;59.944;11.010;2023-02-28T17:15:37;7.70;49.10
39655;DHT22;25336;59.944;11.010;2023-02-28T17:18:04;7.60;49.30
39655;DHT22;25336;59.944;11.010;2023-02-28T17:20:30;7.50;49.40
39655;DHT22;25336;59.944;11.010;2023-02-28T17:22:56;7.40;49.60
39655;DHT22;25336;59.944;11.010;2023-02-28T17:25:22;7.30;49.70
39655;DHT22;25336;59.944;11.010;2023-02-28T17:27:48;7.20;49.90
39655;DHT22;25336;59.944;11.010;2023-02-28T17:30:22;7.10;50.00
39655;DHT22;25336;59.944;11.010;2023-02-28T17:32:48;7.00;50.10
39655;DHT22;25336;59.944;11.010;2023-02-28T17:35:14;6.80;50.10
39655;DHT22;25336;59.944;11.010;2023-02-28T17:37:39;6.60;50.20
39655;DHT22;25336;59.944;11.010;2023-02-28T17:40:06;6.50;50.40
39655;DHT22;25336;59.944;11.010;2023-02-28T17:42:32;6.30;50.70
39655;DHT22;25336;59.944;11.010;2023-02-28T17:44:58;6.20;50.90
39655;DHT22;25336;59.944;11.010;2023-02-28T17:47:23;6.10;51.10
39655;DHT22;25336;59.944;11.010;2023-02-28T17:49:49;6.00;51.30
39655;DHT22;25336;59.944;11.010;2023-02-28T17:52:14;5.90;51.50
39655;DHT22;25336;59.944;11.010;2023-02-28T17:54:40;5.80;51.70